Time;durP1;ratioP1;P1;durP2;ratioP2;P2;SDS_P1;SDS_P2;PMS_P1;PMS_P2;Temp;Humidity;BMP_temperature;BMP_pressure;BME280_temperature;BME280_humidity;BME280_pressure;Samples;Min_cycle;Max_cycle;Signal;HPM_P1;HPM_P2
2021/12/11 00:00:53;;;;;;;20.00;11.50;;;;;;;-16.98;84.36;101760.75;6135798;23;20091;-78
2021/12/11 00:03:27;;;;;;;10.40;8.15;;;;;;;-16.84;85.32;101783.50;6160613;23;20547;-78
2021/12/11 00:06:09;;;;;;;8.70;7.80;;;;;;;-16.80;85.04;101815.47;6136982;23;20016;-79
2021/12/11 00:08:35;;;;;;;10.95;7.47;;;;;;;-17.00;84.60;101781.34;6122096;23;20025;-79
2021/12/11 00:11:33;;;;;;;15.70;8.02;;;;;;;-17.03;84.13;101804.41;6136352;23;20020;-78
2021/12/11 00:14:01;;;;;;;11.23;8.20;;;;;;;-17.30;84.95;101767.13;6163729;23;20055;-79
2021/12/11 00:16:29;;;;;;;13.52;8.90;;;;;;;-17.21;84.24;101801.97;6111907;23;20054;-78
2021/12/11 00:19:03;;;;;;;14.82;9.75;;;;;;;-17.11;84.94;101802.03;6184860;23;20100;-79
2021/12/11 00:21:30;;;;;;;4.82;4.38;;;;;;;-17.28;85.35;101777.25;6166820;23;20016;-80
2021/12/11 00:24:24;;;;;;;8.02;6.97;;;;;;;-17.11;84.95;101789.56;6161018;23;20088;-80
2021/12/11 00:26:59;;;;;;;6.07;5.50;;;;;;;-16.95;85.94;101810.06;6138248;23;20024;-78
2021/12/11 00:29:27;;;;;;;5.75;5.22;;;;;;;-16.90;85.53;101807.94;6186540;23;20095;-79
2021/12/11 00:32:08;;;;;;;6.07;5.60;;;;;;;-17.14;84.71;101779.28;6160220;23;20262;-78
2021/12/11 00:34:36;;;;;;;5.03;4.63;;;;;;;-16.97;84.53;101816.53;6188672;23;20028;-79
2021/12/11 00:37:06;;;;;;;10.35;6.97;;;;;;;-17.00;84.32;101822.16;6211261;23;20419;-79
2021/12/11 00:39:38;;;;;;;7.30;6.63;;;;;;;-17.07;84.06;101822.38;6210556;23;20027;-79
2021/12/11 00:42:08;;;;;;;12.90;8.00;;;;;;;-17.04;84.57;101825.13;6162916;23;20020;-78
2021/12/11 00:44:41;;;;;;;4.87;4.57;;;;;;;-17.17;84.76;101806.47;6210302;23;20048;-78
2021/12/11 00:47:11;;;;;;;9.98;8.32;;;;;;;-17.13;84.83;101814.38;6210044;23;20349;-78
2021/12/11 00:49:48;;;;;;;13.25;8.45;;;;;;;-17.25;84.30;101807.44;6209972;23;20451;-79
2021/12/11 00:52:14;;;;;;;6.72;5.82;;;;;;;-17.23;84.37;101811.81;6162171;23;20017;-79
2021/12/11 00:54:41;;;;;;;7.13;6.18;;;;;;;-17.38;84.24;101788.06;6185057;23;20043;-79
2021/12/11 00:57:12;;;;;;;7.28;5.88;;;;;;;-17.41;84.76;101777.81;6158068;23;20100;-79
2021/12/11 00:59:38;;;;;;;6.28;5.82;;;;;;;-17.22;84.06;101815.19;6159204;23;20017;-78
2021/12/11 01:02:06;;;;;;;12.98;9.32;;;;;;;-17.22;83.82;101813.56;6209573;23;20016;-80
2021/12/11 01:04:41;;;;;;;5.85;5.32;;;;;;;-17.20;83.82;101818.69;6210963;23;20016;-78
2021/12/11 01:07:17;;;;;;;4.95;4.60;;;;;;;-17.44;83.80;101780.06;6184516;23;20025;-78
2021/12/11 01:10:14;;;;;;;12.00;9.30;;;;;;;-17.33;83.69;101806.78;6209264;23;20126;-78
2021/12/11 01:12:48;;;;;;;5.45;4.75;;;;;;;-17.29;83.66;101812.91;6172415;23;20016;-78
2021/12/11 01:15:31;;;;;;;7.38;4.57;;;;;;;-17.27;84.40;101817.28;6160208;23;20016;-78
2021/12/11 01:20:47;;;;;;;;;;;;;;;-17.12;84.24;101810.25;6186676;23;20028;-77
2021/12/11 01:23:46;;;;;;;4.20;3.85;;;;;;;-17.29;84.14;101781.34;6159429;23;19923;-78
2021/12/11 01:26:15;;;;;;;4.57;4.15;;;;;;;-17.25;84.56;101798.34;6166457;23;20022;-79
2021/12/11 01:28:42;;;;;;;7.05;4.60;;;;;;;-17.12;84.56;101810.25;6159674;23;20020;-79
2021/12/11 01:31:11;;;;;;;4.72;4.43;;;;;;;-17.31;83.49;101772.88;6134149;23;20013;-78
2021/12/11 01:33:39;;;;;;;4.82;4.28;;;;;;;-17.17;84.19;101798.97;6135093;23;20016;-79
2021/12/11 01:36:06;;;;;;;5.95;5.47;;;;;;;-17.17;83.69;101813.94;6154726;23;20025;-78
2021/12/11 01:38:36;;;;;;;3.90;3.60;;;;;;;-17.27;84.53;101808.94;6161100;23;20020;-78
2021/12/11 01:41:09;;;;;;;11.52;9.43;;;;;;;-17.30;83.41;101809.53;6159062;23;20009;-78
2021/12/11 01:43:39;;;;;;;7.10;6.22;;;;;;;-17.61;83.74;101790.22;6183954;23;20071;-77
2021/12/11 01:46:06;;;;;;;13.02;6.28;;;;;;;-17.47;83.57;101818.81;6207055;23;20017;-78
2021/12/11 01:48:44;;;;;;;4.82;4.45;;;;;;;-17.38;83.58;101837.06;6158986;23;20020;-77
2021/12/11 01:51:22;;;;;;;16.25;6.47;;;;;;;-17.54;83.60;101813.28;6158049;23;20023;-79
2021/12/11 01:53:52;;;;;;;3.83;3.60;;;;;;;-17.46;84.44;101826.41;6159264;23;20017;-78
2021/12/11 01:56:21;;;;;;;7.90;6.28;;;;;;;-17.47;83.94;101829.66;6158642;23;20012;-78
2021/12/11 01:58:57;;;;;;;3.75;3.50;;;;;;;-17.52;84.31;101819.28;6157521;23;20025;-78
2021/12/11 02:01:32;;;;;;;5.55;5.05;;;;;;;-17.64;83.93;101790.81;6134963;23;20098;-77
2021/12/11 02:03:58;;;;;;;11.60;7.72;;;;;;;-17.56;84.31;101808.91;6183254;23;20020;-78
2021/12/11 02:06:32;;;;;;;3.53;3.30;;;;;;;-17.45;84.32;101825.69;6159281;23;20024;-78
2021/12/11 02:08:58;;;;;;;3.10;2.90;;;;;;;-17.46;84.32;101830.50;6157422;23;20051;-79
2021/12/11 02:11:29;;;;;;;4.20;3.83;;;;;;;-17.57;83.55;101822.16;6171342;23;20016;-79
2021/12/11 02:13:58;;;;;;;5.13;4.80;;;;;;;-17.81;83.75;101780.09;6186526;23;20016;-78
2021/12/11 02:16:30;;;;;;;6.28;4.40;;;;;;;-17.55;83.64;101820.66;6159364;23;20020;-78
2021/12/11 02:19:03;;;;;;;8.40;7.60;;;;;;;-17.55;83.76;101820.66;6206973;23;20368;-79
2021/12/11 02:21:32;;;;;;;6.57;6.03;;;;;;;-17.56;84.45;101823.88;6158234;23;20055;-79
2021/12/11 02:24:08;;;;;;;11.52;9.20;;;;;;;-17.57;84.48;101818.00;6133720;23;20028;-78
2021/12/11 02:26:39;;;;;;;8.25;7.13;;;;;;;-17.77;83.50;101797.97;6138728;23;20020;-79
2021/12/11 02:29:16;;;;;;;5.72;5.25;;;;;;;-17.55;84.21;101830.63;6136065;23;20052;-78
2021/12/11 02:32:02;;;;;;;6.53;5.97;;;;;;;-17.60;84.25;101826.88;6160312;23;20096;-78
2021/12/11 02:34:34;;;;;;;2.55;2.45;;;;;;;-17.59;84.26;101838.56;6162341;23;20040;-78
2021/12/11 02:37:15;;;;;;;7.57;6.75;;;;;;;-17.63;84.30;101839.03;6136412;23;20493;-77
2021/12/11 02:39:53;;;;;;;8.52;7.35;;;;;;;-17.70;84.00;101830.16;6185467;23;20356;-78
2021/12/11 02:42:35;;;;;;;20.88;13.50;;;;;;;-17.66;84.18;101852.13;6185380;23;20073;-77
2021/12/11 02:45:23;;;;;;;9.57;8.73;;;;;;;-17.77;83.62;101846.94;6158098;23;20040;-78
2021/12/11 02:47:53;;;;;;;8.35;7.53;;;;;;;-17.93;83.04;101824.78;6138667;23;20091;-81
2021/12/11 02:50:19;;;;;;;4.78;4.43;;;;;;;-17.78;83.27;101852.66;6212577;23;20020;-80
2021/12/11 02:52:59;;;;;;;8.93;8.00;;;;;;;-17.83;83.83;101848.91;6185023;23;20361;-79
2021/12/11 02:55:28;;;;;;;8.27;7.45;;;;;;;-17.84;83.54;101852.13;6211000;23;20069;-79
2021/12/11 02:57:57;;;;;;;16.95;9.65;;;;;;;-17.89;83.68;101840.84;6186338;23;20460;-79
2021/12/11 03:00:30;;;;;;;12.32;10.38;;;;;;;-18.08;83.07;101819.28;6211605;23;20099;-79
2021/12/11 03:03:03;;;;;;;12.32;7.85;;;;;;;-18.00;83.46;101832.44;6160674;23;20099;-79
2021/12/11 03:05:42;;;;;;;4.03;3.72;;;;;;;-18.00;83.95;101826.56;6158874;23;20024;-78
2021/12/11 03:08:11;;;;;;;5.88;5.35;;;;;;;-18.04;84.09;101810.47;6136191;23;20460;-77
2021/12/11 03:10:38;;;;;;;7.47;6.93;;;;;;;-17.99;83.45;101805.91;6158932;23;20410;-75
2021/12/11 03:13:04;;;;;;;4.35;3.65;;;;;;;-17.86;83.88;101828.69;6184273;23;20071;-75
2021/12/11 03:15:32;;;;;;;5.90;4.30;;;;;;;-17.82;83.99;101821.59;6212895;23;20028;-78
2021/12/11 03:17:58;;;;;;;4.22;3.92;;;;;;;-17.74;83.95;101843.09;6139302;23;20031;-77
2021/12/11 03:20:24;;;;;;;10.70;8.25;;;;;;;-17.73;83.78;101819.06;6212008;23;20012;-79
2021/12/11 03:22:51;;;;;;;3.00;2.80;;;;;;;-17.60;84.29;101834.34;6136895;23;20027;-76
2021/12/11 03:25:20;;;;;;;3.60;3.38;;;;;;;-17.60;83.50;101832.72;6212434;23;20046;-77
2021/12/11 03:27:46;;;;;;;4.85;4.53;;;;;;;-17.82;83.23;101808.25;6212719;23;20020;-77
2021/12/11 03:30:15;;;;;;;4.32;3.97;;;;;;;-17.69;83.66;101828.53;6187371;23;20078;-76
2021/12/11 03:32:41;;;;;;;3.65;3.28;;;;;;;-17.79;82.75;101824.34;6162548;23;20036;-75
2021/12/11 03:35:08;;;;;;;4.60;4.32;;;;;;;-17.80;83.50;101821.75;6211014;23;20448;-75
2021/12/11 03:37:34;;;;;;;5.60;4.13;;;;;;;-17.77;82.83;101832.88;6159046;23;20035;-76
2021/12/11 03:40:01;;;;;;;4.38;4.07;;;;;;;-17.82;83.74;101825.69;6183659;23;20023;-75
2021/12/11 03:42:32;;;;;;;6.05;5.55;;;;;;;-17.99;83.10;101808.41;6209862;23;20364;-76
2021/12/11 03:44:59;;;;;;;4.63;4.05;;;;;;;-17.74;83.98;101852.19;6162421;23;20017;-76
2021/12/11 03:47:28;;;;;;;4.00;3.80;;;;;;;-18.05;84.08;101808.72;6211038;23;20407;-76
2021/12/11 03:49:54;;;;;;;4.85;4.55;;;;;;;-17.77;83.57;101857.78;6210639;23;20017;-76
2021/12/11 03:52:21;;;;;;;7.32;4.43;;;;;;;-17.95;83.52;101816.25;6185081;23;20078;-76
2021/12/11 03:54:48;;;;;;;5.30;4.80;;;;;;;-17.93;83.69;101823.88;6184782;23;20020;-76
2021/12/11 03:57:16;;;;;;;8.40;5.53;;;;;;;-17.84;83.76;101848.00;6209769;23;20078;-76
2021/12/11 03:59:45;;;;;;;6.75;4.93;;;;;;;-17.85;83.35;101837.91;6160040;23;20020;-76
2021/12/11 04:02:11;;;;;;;9.23;6.43;;;;;;;-17.94;84.74;101812.16;6213656;23;20021;-75
2021/12/11 04:04:44;;;;;;;9.15;5.55;;;;;;;-18.01;84.03;101819.81;6214857;23;20016;-77
2021/12/11 04:07:13;;;;;;;6.20;5.60;;;;;;;-17.96;83.09;101838.56;6161409;23;20032;-76
2021/12/11 04:09:39;;;;;;;10.73;4.47;;;;;;;-18.24;83.33;101801.22;6160187;23;20472;-75
2021/12/11 04:12:06;;;;;;;4.55;4.25;;;;;;;-17.96;83.19;101848.53;6163051;23;20099;-78
2021/12/11 04:14:34;;;;;;;6.15;5.65;;;;;;;-18.04;83.29;101846.97;6165130;23;20020;-77
2021/12/11 04:17:01;;;;;;;7.97;6.68;;;;;;;-18.09;83.08;101832.47;6185008;23;20017;-76
2021/12/11 04:19:27;;;;;;;6.85;5.32;;;;;;;-18.15;83.00;101826.94;6159946;23;20027;-77
2021/12/11 04:21:54;;;;;;;10.35;7.60;;;;;;;-18.31;83.27;101795.53;6184673;23;20016;-77
2021/12/11 04:24:23;;;;;;;12.57;6.50;;;;;;;-18.17;83.27;101822.56;6184552;23;20021;-75
2021/12/11 04:26:49;;;;;;;6.68;5.95;;;;;;;-18.32;82.58;101797.16;6214694;23;20024;-76
2021/12/11 04:29:15;;;;;;;3.20;3.10;;;;;;;-18.19;82.81;101809.97;6189900;23;20119;-76
2021/12/11 04:31:43;;;;;;;3.33;3.13;;;;;;;-18.28;82.99;101794.19;6211053;23;20394;-76
2021/12/11 04:34:10;;;;;;;5.18;4.78;;;;;;;-18.11;82.58;101811.53;6209516;23;20360;-77
2021/12/11 04:36:40;;;;;;;5.38;4.88;;;;;;;-18.19;83.18;101807.47;6134608;23;20023;-77
2021/12/11 04:39:08;;;;;;;4.50;4.13;;;;;;;-18.09;82.48;101807.56;6209125;23;20020;-77
2021/12/11 04:41:41;;;;;;;3.30;3.10;;;;;;;-18.09;83.51;101805.06;6184135;23;20443;-78
2021/12/11 04:44:24;;;;;;;5.78;3.78;;;;;;;-18.11;82.57;101808.16;6209032;23;20016;-78
2021/12/11 04:46:50;;;;;;;7.05;6.28;;;;;;;-18.11;82.83;101819.00;6135128;23;20024;-77
2021/12/11 04:49:28;;;;;;;6.50;3.40;;;;;;;-18.18;83.03;101811.72;6210403;23;20389;-77
2021/12/11 04:52:03;;;;;;;6.32;5.85;;;;;;;-18.14;82.69;101808.78;6209223;23;20020;-76
2021/12/11 04:54:52;;;;;;;3.72;3.42;;;;;;;-18.12;83.62;101823.84;6161971;23;20062;-77
2021/12/11 05:10:23;;;;;;;8.52;5.55;;;;;;;-18.10;83.30;101829.88;6184905;23;20475;-76
2021/12/11 05:12:52;;;;;;;5.85;4.97;;;;;;;-18.10;82.73;101820.78;6162849;23;20111;-76
2021/12/11 05:15:29;;;;;;;3.20;3.05;;;;;;;-18.02;83.29;101828.91;6159730;23;20383;-76
2021/12/11 05:17:56;;;;;;;4.90;4.60;;;;;;;-18.08;83.35;101824.25;6160035;23;20025;-76
2021/12/11 05:20:24;;;;;;;4.85;4.45;;;;;;;-18.09;82.29;101826.63;6159944;23;20532;-75
2021/12/11 05:22:52;;;;;;;7.72;6.93;;;;;;;-18.09;82.61;101831.63;6159181;23;20046;-77
2021/12/11 05:25:18;;;;;;;5.93;4.85;;;;;;;-18.04;82.03;101839.50;6135201;23;20023;-77
2021/12/11 05:27:47;;;;;;;5.07;4.72;;;;;;;-18.16;82.55;101809.38;6112815;23;20031;-76
2021/12/11 05:30:29;;;;;;;6.25;5.65;;;;;;;-18.07;82.42;101822.66;6111197;23;20020;-76
2021/12/11 05:33:05;;;;;;;12.70;6.72;;;;;;;-18.17;81.14;101818.47;6162986;23;20016;-76
2021/12/11 05:35:49;;;;;;;8.15;7.45;;;;;;;-18.08;81.23;101839.22;6135329;23;20055;-76
2021/12/11 05:38:21;;;;;;;5.60;4.82;;;;;;;-18.00;81.73;101834.03;6170397;23;20029;-75
2021/12/11 05:41:01;;;;;;;8.45;6.07;;;;;;;-18.01;81.24;101838.16;6202904;23;20489;-77
2021/12/11 05:43:30;;;;;;;11.48;8.15;;;;;;;-18.02;81.00;101841.38;6185274;23;20017;-76
2021/12/11 05:45:58;;;;;;;5.80;4.80;;;;;;;-18.21;81.63;101803.97;6134230;23;20341;-76
2021/12/11 05:48:24;;;;;;;4.80;4.40;;;;;;;-18.23;81.61;101790.53;6133455;23;20352;-76
2021/12/11 05:50:53;;;;;;;9.07;5.28;;;;;;;-17.99;81.58;101833.31;6134237;23;20017;-76
2021/12/11 05:53:23;;;;;;;3.97;3.78;;;;;;;-18.07;81.57;101821.06;6159126;23;20027;-76
2021/12/11 05:55:53;;;;;;;3.78;3.33;;;;;;;-18.03;81.08;101829.69;6135941;23;20112;-77
2021/12/11 06:01:35;;;;;;;7.10;6.30;;;;;;;-17.83;80.97;101824.81;6184552;23;20024;-76
2021/12/11 06:04:08;;;;;;;9.35;7.35;;;;;;;-17.92;80.63;101820.63;6137160;23;20048;-76
2021/12/11 06:06:37;;;;;;;4.00;3.80;;;;;;;-17.78;80.93;101830.22;6158859;23;20107;-77
2021/12/11 06:09:05;;;;;;;7.53;6.60;;;;;;;-17.57;81.66;101832.97;6136948;23;20086;-78
2021/12/11 06:11:32;;;;;;;4.28;3.88;;;;;;;-17.31;79.92;101822.78;6161518;23;20412;-78
2021/12/11 06:14:07;;;;;;;7.65;6.97;;;;;;;-17.11;77.58;101814.50;6163822;23;20848;-78
2021/12/11 06:16:34;;;;;;;5.00;4.70;;;;;;;-17.22;77.99;101823.56;6116091;23;20021;-78
2021/12/11 06:19:04;;;;;;;5.47;5.13;;;;;;;-17.28;79.05;101835.50;6213129;23;20350;-78
2021/12/11 06:21:36;;;;;;;13.60;10.73;;;;;;;-17.18;78.87;101829.69;6161747;23;20020;-79
2021/12/11 06:24:09;;;;;;;;;;;;;;;-17.21;78.93;101835.28;6186731;23;20073;-78
2021/12/11 06:26:36;;;;;;;8.07;7.28;;;;;;;-17.41;78.75;101811.84;6185505;23;19916;-78
2021/12/11 06:29:02;;;;;;;6.13;5.57;;;;;;;-17.45;78.73;101795.75;6161381;23;20027;-78
2021/12/11 06:31:28;;;;;;;4.22;3.83;;;;;;;-17.39;78.96;101798.78;6160637;23;20128;-78
2021/12/11 06:33:55;;;;;;;7.65;6.95;;;;;;;-17.32;79.32;101821.00;6213451;23;20017;-79
2021/12/11 06:36:22;;;;;;;4.82;3.75;;;;;;;-17.26;79.01;101826.53;6212239;23;20074;-79
2021/12/11 06:38:50;;;;;;;4.63;4.20;;;;;;;-17.14;78.88;101837.56;6186393;23;20050;-79
2021/12/11 06:41:17;;;;;;;12.98;7.88;;;;;;;-17.21;79.18;101804.47;6160617;23;20075;-78
2021/12/11 06:43:49;;;;;;;3.25;3.05;;;;;;;-17.05;78.79;101835.88;6210305;23;20027;-78
2021/12/11 06:46:17;;;;;;;3.95;3.72;;;;;;;-16.85;79.37;101841.69;6160102;23;20023;-79
2021/12/11 06:49:11;;;;;;;8.18;7.25;;;;;;;-16.59;78.92;101852.25;6160584;23;20017;-77
2021/12/11 06:51:40;;;;;;;5.60;5.22;;;;;;;-16.51;78.31;101846.25;6184836;23;20013;-79
2021/12/11 06:54:42;;;;;;;9.68;6.38;;;;;;;-16.39;76.95;101849.78;6190674;23;20068;-78
2021/12/11 06:57:21;;;;;;;6.28;4.15;;;;;;;-16.23;77.10;101837.81;6164491;23;20044;-78
2021/12/11 06:59:52;;;;;;;6.90;5.93;;;;;;;-16.29;76.59;101834.78;6209462;23;20526;-78
2021/12/11 07:02:24;;;;;;;9.45;8.38;;;;;;;-16.51;76.31;101817.16;6159332;23;20021;-78
2021/12/11 07:04:55;;;;;;;9.50;8.18;;;;;;;-16.43;76.69;101810.28;6181348;23;20024;-78
2021/12/11 07:07:31;;;;;;;10.20;8.55;;;;;;;-16.05;76.76;101844.31;6159808;23;20028;-78
2021/12/11 07:10:06;;;;;;;8.80;7.90;;;;;;;-16.08;76.42;101821.56;6117279;23;20025;-79
2021/12/11 07:12:32;;;;;;;11.70;8.73;;;;;;;-15.86;75.58;101836.69;6185226;23;20027;-79
2021/12/11 07:14:58;;;;;;;4.45;4.05;;;;;;;-15.79;75.67;101823.06;6184128;23;20023;-78
2021/12/11 07:17:25;;;;;;;3.90;3.60;;;;;;;-15.83;75.38;101836.09;6208781;23;20017;-78
2021/12/11 07:19:51;;;;;;;4.15;3.85;;;;;;;-15.65;74.01;101827.56;6134204;23;20146;-78
2021/12/11 07:22:17;;;;;;;16.08;4.72;;;;;;;-15.49;74.15;101828.03;6210419;23;20023;-78
2021/12/11 07:24:52;;;;;;;4.10;3.80;;;;;;;-15.52;74.49;101842.78;6159061;23;20020;-78
2021/12/11 07:27:18;;;;;;;18.15;12.23;;;;;;;-15.78;74.92;101817.31;6184115;23;20020;-78
2021/12/11 07:29:44;;;;;;;7.18;5.80;;;;;;;-15.49;74.41;101850.53;6110701;23;20396;-79
2021/12/11 07:32:11;;;;;;;5.85;5.13;;;;;;;-15.18;73.93;101839.66;6160328;23;20078;-78
2021/12/11 07:34:37;;;;;;;12.05;8.75;;;;;;;-15.44;74.27;101826.72;6111764;23;20017;-78
2021/12/11 07:37:04;;;;;;;10.45;7.53;;;;;;;-15.12;73.77;101845.19;6186350;23;20012;-77
2021/12/11 07:39:41;;;;;;;9.38;6.80;;;;;;;-15.08;72.94;101844.63;6111402;23;20017;-79
2021/12/11 07:42:08;;;;;;;14.55;9.73;;;;;;;-15.21;73.87;101836.06;6161804;23;20192;-80
2021/12/11 07:44:34;;;;;;;11.15;7.57;;;;;;;-15.38;74.65;101829.72;6165058;23;20059;-80
2021/12/11 07:47:00;;;;;;;11.02;7.30;;;;;;;-15.21;75.02;101844.44;6140037;23;20021;-81
2021/12/11 07:49:26;;;;;;;9.60;7.88;;;;;;;-15.02;74.58;101862.69;6138971;23;20163;-79
2021/12/11 07:51:53;;;;;;;13.85;10.98;;;;;;;-15.29;74.68;101832.06;6144400;23;20445;-81
2021/12/11 07:54:19;;;;;;;9.98;8.27;;;;;;;-14.61;72.97;101860.00;6145499;23;20016;-80
2021/12/11 07:56:45;;;;;;;10.50;7.57;;;;;;;-14.58;72.54;101820.13;6139330;23;20084;-79
2021/12/11 07:59:12;;;;;;;12.05;9.38;;;;;;;-14.60;72.18;101851.72;6112425;23;20024;-80
2021/12/11 08:01:42;;;;;;;7.30;6.60;;;;;;;-14.43;72.70;101826.31;6112201;23;20016;-80
2021/12/11 08:04:08;;;;;;;5.03;4.60;;;;;;;-14.10;70.44;101843.84;6111356;23;20027;-80
2021/12/11 08:06:34;;;;;;;8.95;6.80;;;;;;;-14.07;70.53;101836.59;6138307;23;20021;-80
2021/12/11 08:09:01;;;;;;;8.15;7.35;;;;;;;-14.07;70.38;101820.66;6137931;23;20016;-78
2021/12/11 08:11:28;;;;;;;6.43;5.80;;;;;;;-13.60;69.96;101839.19;6159811;23;20028;-77
2021/12/11 08:13:54;;;;;;;11.55;8.13;;;;;;;-13.23;67.43;101846.09;6183625;23;20055;-77
2021/12/11 08:16:26;;;;;;;14.40;12.10;;;;;;;-13.45;67.98;101837.81;6159201;23;20425;-78
2021/12/11 08:18:54;;;;;;;10.30;9.07;;;;;;;-13.40;68.11;101829.84;6189162;23;20028;-76
2021/12/11 08:21:21;;;;;;;5.85;5.32;;;;;;;-13.36;68.75;101825.91;6159896;23;20021;-77
2021/12/11 08:23:49;;;;;;;14.85;11.48;;;;;;;-12.51;66.71;101830.25;6152678;23;20017;-78
2021/12/11 08:26:16;;;;;;;6.50;5.93;;;;;;;-12.48;66.87;101832.09;6208224;23;20044;-78
2021/12/11 08:28:42;;;;;;;16.52;10.70;;;;;;;-11.72;62.30;101826.41;6207081;23;20471;-77
2021/12/11 08:31:09;;;;;;;16.02;10.18;;;;;;;-11.88;63.33;101816.09;6179840;23;20055;-78
2021/12/11 08:33:35;;;;;;;13.38;9.25;;;;;;;-12.24;64.97;101827.09;6132560;23;20020;-78
2021/12/11 08:36:00;;;;;;;17.42;11.52;;;;;;;-12.26;65.07;101820.19;6182877;23;20469;-78
2021/12/11 08:38:27;;;;;;;16.98;11.00;;;;;;;-12.00;64.23;101815.25;6208156;23;20028;-78
2021/12/11 08:40:54;;;;;;;14.15;10.82;;;;;;;-11.63;63.82;101828.59;6133413;23;20045;-78
2021/12/11 08:43:21;;;;;;;15.85;10.25;;;;;;;-12.28;64.78;101821.75;6158846;23;20024;-78
2021/12/11 08:45:57;;;;;;;6.55;6.00;;;;;;;-13.12;68.76;101830.19;6207824;23;20020;-78
2021/12/11 08:48:24;;;;;;;8.02;5.82;;;;;;;-12.65;66.65;101813.34;6184361;23;20032;-77
2021/12/11 08:50:53;;;;;;;15.40;9.40;;;;;;;-12.41;66.05;101819.16;6183528;23;20499;-78
2021/12/11 08:53:20;;;;;;;10.90;6.75;;;;;;;-12.82;66.98;101804.63;6183373;23;20092;-77
2021/12/11 08:55:49;;;;;;;18.25;12.65;;;;;;;-12.92;68.54;101814.81;6181885;23;20441;-78
2021/12/11 08:58:17;;;;;;;6.20;5.07;;;;;;;-13.36;69.47;101816.75;6208126;23;20020;-77
2021/12/11 09:01:14;;;;;;;18.48;13.77;;;;;;;-12.42;67.45;101812.38;6156771;23;20103;-77
2021/12/11 09:04:02;;;;;;;20.25;12.55;;;;;;;-11.72;64.68;101805.38;6209798;23;20524;-77
2021/12/11 09:06:34;;;;;;;6.53;6.03;;;;;;;-12.13;65.10;101800.13;6207631;23;20095;-77
2021/12/11 09:09:11;;;;;;;8.45;6.75;;;;;;;-13.44;70.87;101806.88;6207310;23;20020;-76
2021/12/11 09:11:50;;;;;;;6.45;5.68;;;;;;;-13.98;72.80;101799.63;6207610;23;20074;-77
2021/12/11 09:14:26;;;;;;;18.25;11.55;;;;;;;-14.04;73.20;101794.16;6134047;23;20074;-77
2021/12/11 09:17:00;;;;;;;17.20;14.32;;;;;;;-14.43;74.69;101793.75;6185172;23;20017;-77
2021/12/11 09:19:59;;;;;;;7.88;5.78;;;;;;;-13.95;74.29;101804.00;6159380;23;20012;-77
2021/12/11 09:22:29;;;;;;;5.15;4.80;;;;;;;-13.92;73.35;101807.59;6206152;23;20016;-78
2021/12/11 09:25:06;;;;;;;8.52;5.35;;;;;;;-14.14;74.35;101801.78;6181710;23;20128;-77
2021/12/11 09:27:52;;;;;;;4.05;3.72;;;;;;;-14.07;74.18;101803.09;6184221;23;20025;-77
2021/12/11 09:30:32;;;;;;;8.95;5.30;;;;;;;-14.07;75.38;101790.56;6208251;23;20021;-76
2021/12/11 09:33:04;;;;;;;14.73;13.13;;;;;;;-13.94;74.90;101781.53;6206812;23;20017;-77
2021/12/11 09:36:33;;;;;;;6.63;5.97;;;;;;;-14.14;75.63;101786.72;6157464;23;20020;-75
2021/12/11 09:39:27;;;;;;;9.00;7.25;;;;;;;-14.03;74.87;101790.88;6143242;23;20487;-75
2021/12/11 09:41:53;;;;;;;13.95;9.43;;;;;;;-13.57;74.13;101791.72;6180468;23;20524;-75
2021/12/11 09:44:27;;;;;;;8.00;7.07;;;;;;;-13.85;74.82;101766.28;6153869;23;20103;-75
2021/12/11 09:46:56;;;;;;;7.28;6.35;;;;;;;-13.85;75.41;101764.66;6154261;23;20016;-75
2021/12/11 09:49:30;;;;;;;6.47;5.85;;;;;;;-14.09;75.94;101765.34;6179852;23;20024;-75
2021/12/11 09:52:13;;;;;;;18.00;14.52;;;;;;;-13.94;75.06;101758.97;6153708;23;20096;-75
2021/12/11 09:54:40;;;;;;;6.97;5.05;;;;;;;-13.79;75.78;101784.28;6205664;23;20092;-75
2021/12/11 09:57:09;;;;;;;14.55;11.50;;;;;;;-13.85;75.38;101777.19;6129351;23;20051;-74
2021/12/11 09:59:36;;;;;;;17.08;12.43;;;;;;;-13.77;75.49;101779.38;6206274;23;20399;-75
2021/12/11 10:02:09;;;;;;;4.35;4.05;;;;;;;-13.72;75.72;101783.97;6178233;23;20595;-75
2021/12/11 10:04:45;;;;;;;9.07;6.55;;;;;;;-13.74;75.24;101769.56;6178114;23;20532;-75
2021/12/11 10:07:29;;;;;;;8.90;6.53;;;;;;;-13.81;75.56;101773.28;6132300;23;20024;-75
2021/12/11 10:10:04;;;;;;;9.27;7.55;;;;;;;-13.81;75.03;101770.75;6183240;23;20048;-75
2021/12/11 10:12:34;;;;;;;12.55;7.88;;;;;;;-13.84;75.16;101788.09;6157733;23;20092;-75
2021/12/11 10:15:09;;;;;;;20.70;13.45;;;;;;;-13.88;75.91;101776.97;6181391;23;20467;-75
2021/12/11 10:17:42;;;;;;;15.55;9.38;;;;;;;-13.86;76.18;101754.47;6180975;23;20380;-74
2021/12/11 10:20:13;;;;;;;7.75;5.70;;;;;;;-13.81;76.20;101743.16;6160790;23;20012;-74
2021/12/11 10:22:39;;;;;;;14.75;11.82;;;;;;;-13.66;75.85;101769.34;6210427;23;20027;-75
2021/12/11 10:25:14;;;;;;;10.23;7.97;;;;;;;-13.56;76.81;101766.72;6157406;23;20047;-75
2021/12/11 10:27:41;;;;;;;8.05;7.30;;;;;;;-13.59;75.17;101755.59;6208531;23;20111;-77
2021/12/11 10:30:08;;;;;;;11.20;7.05;;;;;;;-13.41;75.11;101771.97;6084531;23;20344;-76
2021/12/11 10:32:35;;;;;;;6.13;5.55;;;;;;;-13.59;74.86;101780.69;6111703;23;20021;-82
2021/12/11 11:43:31;;;;;;;5.65;5.15;;;;;;;-13.37;78.82;101713.66;6177988;23;20029;-77
2021/12/11 11:45:57;;;;;;;8.95;8.05;;;;;;;-13.31;78.10;101709.94;6153624;23;20023;-76
2021/12/11 11:48:26;;;;;;;7.60;6.43;;;;;;;-13.38;79.25;101699.38;6181252;23;20028;-80
2021/12/11 11:50:55;;;;;;;8.48;5.53;;;;;;;-13.37;79.76;101708.63;6110370;23;20021;-80
2021/12/11 11:53:24;;;;;;;7.30;6.60;;;;;;;-13.34;79.08;101693.78;6107711;23;20106;-79
2021/12/11 11:55:56;;;;;;;7.45;5.90;;;;;;;-13.35;78.99;101702.09;6085531;23;20473;-80
2021/12/11 11:58:22;;;;;;;3.33;3.13;;;;;;;-13.41;79.60;101684.94;6087481;23;20036;-78
2021/12/11 12:00:53;;;;;;;15.75;9.13;;;;;;;-13.38;79.80;101695.22;6139100;23;20024;-81
2021/12/11 12:03:21;;;;;;;20.52;13.48;;;;;;;-13.36;80.39;101698.72;6113485;23;20019;-79
2021/12/11 12:05:52;;;;;;;11.70;7.22;;;;;;;-13.42;79.67;101688.25;6135409;23;20105;-80
2021/12/11 12:08:18;;;;;;;4.88;4.47;;;;;;;-13.38;80.20;101696.88;6158300;23;20450;-80
2021/12/11 12:10:46;;;;;;;6.63;5.90;;;;;;;-13.37;79.95;101696.09;6107541;23;20028;-79
2021/12/11 12:13:12;;;;;;;12.13;8.60;;;;;;;-13.40;79.31;101698.38;6134314;23;20085;-79
2021/12/11 12:15:44;;;;;;;19.58;9.38;;;;;;;-13.44;80.19;101703.94;6106418;23;20021;-78
2021/12/11 12:18:11;;;;;;;8.30;7.50;;;;;;;-13.59;80.23;101670.25;6105824;23;20013;-80
2021/12/11 12:20:40;;;;;;;11.60;7.63;;;;;;;-13.54;79.64;101694.91;6082247;23;20017;-78
2021/12/11 12:23:08;;;;;;;6.22;5.72;;;;;;;-13.61;80.05;101696.91;6155438;23;20135;-79
2021/12/11 12:25:34;;;;;;;11.15;9.85;;;;;;;-13.68;80.29;101698.09;6080574;23;20017;-77
2021/12/11 12:28:00;;;;;;;11.30;6.18;;;;;;;-13.74;80.57;101694.28;6103391;23;20080;-79
2021/12/11 12:30:32;;;;;;;13.95;10.15;;;;;;;-13.74;80.99;101714.34;6128622;23;20397;-77
2021/12/11 12:32:59;;;;;;;4.18;3.88;;;;;;;-13.77;80.80;101708.34;6151277;23;20017;-76
2021/12/11 12:35:27;;;;;;;6.88;6.05;;;;;;;-13.86;80.74;101705.19;6078989;23;20025;-76
2021/12/11 12:37:58;;;;;;;9.80;7.03;;;;;;;-13.84;81.55;101721.19;6125056;23;20021;-77
2021/12/11 12:40:59;;;;;;;9.43;8.13;;;;;;;-13.88;80.94;101716.75;6130477;23;20013;-77
2021/12/11 12:46:28;;;;;;;7.60;6.13;;;;;;;-14.03;81.01;101703.09;6109109;23;20023;-78
2021/12/11 12:48:55;;;;;;;9.18;8.23;;;;;;;-14.15;81.67;101693.81;6123027;23;20013;-78
2021/12/11 12:51:22;;;;;;;8.40;7.00;;;;;;;-14.20;81.67;101690.09;6097853;23;20120;-77
2021/12/11 12:53:49;;;;;;;5.28;4.82;;;;;;;-14.16;82.02;101687.91;6099585;23;20017;-79
2021/12/11 12:56:22;;;;;;;10.82;8.55;;;;;;;-14.19;82.24;101682.69;6075796;23;20080;-79
2021/12/11 12:59:06;;;;;;;12.57;8.85;;;;;;;-14.27;82.07;101682.91;6101462;23;20028;-80
2021/12/11 13:01:41;;;;;;;5.05;4.55;;;;;;;-14.19;82.67;101692.72;6123856;23;20017;-79
2021/12/11 13:04:08;;;;;;;10.68;8.77;;;;;;;-14.22;82.13;101696.63;6122761;23;20045;-78